createdAt,value
2018-06-21T00:01:16.531Z,10.97
2018-06-21T00:04:19.675Z,11.23
2018-06-21T00:07:22.807Z,10.73
2018-06-21T00:10:25.983Z,10.17
2018-06-21T00:13:29.102Z,10.30
2018-06-21T00:16:32.250Z,11.20
2018-06-21T00:19:35.438Z,10.93
2018-06-21T00:22:38.594Z,11.10
2018-06-21T00:25:41.747Z,10.50
2018-06-21T00:28:44.870Z,10.20
2018-06-21T00:31:48.059Z,11.17
2018-06-21T00:34:51.204Z,11.13
2018-06-21T00:37:54.447Z,11.13
2018-06-21T00:40:57.703Z,11.77
2018-06-21T00:44:00.846Z,11.60
2018-06-21T00:47:03.984Z,11.50
2018-06-21T00:50:07.122Z,10.53
2018-06-21T00:53:10.373Z,11.30
2018-06-21T00:56:16.610Z,12.47
2018-06-21T00:59:19.779Z,11.97
2018-06-21T01:02:22.899Z,11.63
2018-06-21T01:05:26.027Z,11.37
2018-06-21T01:08:29.142Z,10.57
2018-06-21T01:11:32.311Z,11.70
2018-06-21T01:14:35.492Z,11.50
2018-06-21T01:17:38.594Z,11.90
2018-06-21T01:20:41.707Z,10.93
2018-06-21T01:23:44.923Z,11.83
2018-06-21T01:26:48.079Z,12.90
2018-06-21T01:29:51.233Z,11.60
2018-06-21T01:32:54.374Z,11.53
2018-06-21T01:35:57.525Z,11.97
2018-06-21T01:39:00.861Z,12.07
2018-06-21T01:42:03.990Z,12.00
2018-06-21T01:45:07.135Z,11.93
2018-06-21T01:48:10.276Z,12.20
2018-06-21T01:51:13.394Z,11.97
2018-06-21T01:54:16.553Z,12.70
2018-06-21T01:57:19.659Z,12.63
2018-06-21T02:00:22.773Z,15.20
2018-06-21T02:03:25.932Z,13.57
2018-06-21T02:06:29.233Z,13.93
2018-06-21T02:09:32.440Z,13.83
2018-06-21T02:12:35.654Z,13.23
2018-06-21T02:15:38.804Z,13.63
2018-06-21T02:18:42.070Z,13.17
2018-06-21T02:21:45.296Z,12.90
2018-06-21T02:24:48.448Z,12.63
2018-06-21T02:27:51.591Z,12.70
2018-06-21T02:30:54.727Z,13.20
2018-06-21T02:33:57.847Z,12.67
2018-06-21T02:37:00.963Z,12.40
2018-06-21T02:40:04.176Z,13.63
2018-06-21T02:43:07.575Z,12.47
2018-06-21T02:46:10.722Z,13.23
2018-06-21T02:49:13.919Z,12.93
2018-06-21T02:52:17.034Z,13.07
2018-06-21T02:55:20.195Z,12.63
2018-06-21T02:58:23.324Z,12.23
2018-06-21T03:01:26.442Z,12.10
2018-06-21T03:04:29.595Z,12.30
2018-06-21T03:07:32.730Z,12.00
2018-06-21T03:10:35.944Z,12.33
2018-06-21T03:13:39.151Z,12.63
2018-06-21T03:16:42.249Z,11.70
2018-06-21T03:19:45.423Z,13.07
2018-06-21T03:22:48.553Z,12.97
2018-06-21T03:25:51.683Z,12.10
2018-06-21T03:28:54.830Z,12.70
2018-06-21T03:31:58.051Z,11.50
2018-06-21T03:35:01.209Z,12.70
2018-06-21T03:38:04.350Z,13.43
2018-06-21T03:41:07.502Z,12.23
2018-06-21T03:44:10.682Z,12.27
2018-06-21T03:47:13.845Z,12.30
2018-06-21T03:50:16.973Z,12.70
2018-06-21T03:53:20.097Z,13.00
2018-06-21T03:56:23.217Z,14.20
2018-06-21T03:59:26.356Z,13.50
2018-06-21T04:02:29.457Z,11.57
2018-06-21T04:05:32.674Z,13.03
2018-06-21T04:08:35.796Z,12.57
2018-06-21T04:11:39.144Z,13.23
2018-06-21T04:14:42.261Z,11.70
2018-06-21T04:17:45.412Z,11.50
2018-06-21T04:20:48.656Z,12.40
2018-06-21T04:23:51.800Z,12.33
2018-06-21T04:26:55.015Z,11.63
2018-06-21T04:29:58.194Z,12.20
2018-06-21T04:33:02.033Z,12.37
2018-06-21T04:36:05.287Z,12.80
2018-06-21T04:39:09.148Z,12.73
2018-06-21T04:42:12.390Z,12.73
2018-06-21T04:45:15.634Z,12.43
2018-06-21T04:48:18.754Z,13.10
2018-06-21T04:51:21.931Z,11.57
2018-06-21T04:54:25.199Z,12.33
2018-06-21T04:57:28.373Z,12.67
2018-06-21T05:00:31.535Z,12.33
2018-06-21T05:03:34.810Z,11.93
2018-06-21T05:06:38.025Z,11.77
2018-06-21T05:09:41.141Z,11.50
2018-06-21T05:12:44.376Z,11.03
2018-06-21T05:15:47.502Z,11.07
2018-06-21T05:18:50.680Z,10.93
2018-06-21T05:21:53.851Z,10.80
2018-06-21T05:24:57.039Z,9.83
2018-06-21T05:28:00.197Z,10.47
2018-06-21T05:31:03.442Z,10.37
2018-06-21T05:34:06.629Z,9.50
2018-06-21T05:37:09.734Z,10.23
2018-06-21T05:40:24.545Z,8.90
2018-06-21T05:43:27.722Z,8.87
2018-06-21T05:46:30.962Z,9.87
2018-06-21T05:49:34.157Z,8.53
2018-06-21T05:52:37.333Z,9.20
2018-06-21T05:55:40.506Z,9.00
2018-06-21T05:58:43.670Z,8.80
2018-06-21T06:01:46.865Z,8.67
2018-06-21T06:04:50.081Z,11.57
2018-06-21T06:07:53.307Z,9.37
2018-06-21T06:10:56.525Z,13.07
2018-06-21T06:13:59.803Z,8.60
2018-06-21T06:17:03.042Z,8.90
2018-06-21T06:20:06.302Z,8.97
2018-06-21T06:23:09.397Z,7.57
2018-06-21T06:26:12.543Z,8.47
2018-06-21T06:29:15.710Z,7.43
2018-06-21T06:32:19.182Z,8.33
2018-06-21T06:35:26.691Z,7.50
2018-06-21T06:38:29.923Z,7.73
2018-06-21T06:41:33.115Z,7.20
2018-06-21T06:44:36.311Z,7.67
2018-06-21T06:47:39.622Z,7.00
2018-06-21T06:50:42.799Z,11.27
2018-06-21T06:53:45.988Z,8.13
2018-06-21T06:56:49.277Z,6.77
2018-06-21T06:59:52.556Z,7.40
2018-06-21T07:02:55.702Z,6.57
2018-06-21T07:05:58.897Z,6.90
2018-06-21T07:09:02.082Z,6.03
2018-06-21T07:12:05.230Z,6.30
2018-06-21T07:15:08.421Z,6.60
2018-06-21T07:18:11.612Z,6.30
2018-06-21T07:21:14.762Z,8.70
2018-06-21T07:24:17.938Z,7.30
2018-06-21T07:27:21.117Z,6.50
2018-06-21T07:30:24.801Z,6.47
2018-06-21T07:33:28.524Z,6.47
2018-06-21T07:36:31.742Z,6.30
2018-06-21T07:39:34.911Z,6.73
2018-06-21T07:42:38.227Z,6.40
2018-06-21T07:45:41.440Z,6.30
2018-06-21T07:48:45.976Z,6.40
2018-06-21T07:51:51.272Z,6.37
2018-06-21T07:54:56.037Z,5.43
2018-06-21T07:58:00.425Z,6.47
2018-06-21T08:01:04.315Z,6.37
2018-06-21T08:04:11.161Z,5.53
2018-06-21T08:07:15.737Z,5.30
2018-06-21T08:10:19.049Z,4.97
2018-06-21T08:13:23.582Z,4.43
2018-06-21T08:16:27.428Z,4.53
2018-06-21T08:19:30.664Z,4.20
2018-06-21T08:22:36.523Z,4.43
2018-06-21T08:25:40.045Z,4.90
2018-06-21T08:28:50.072Z,4.90
2018-06-21T08:31:54.593Z,4.67
2018-06-21T08:34:58.184Z,5.90
2018-06-21T08:38:01.759Z,5.37
2018-06-21T08:41:07.661Z,5.37
2018-06-21T08:44:11.606Z,4.97
2018-06-21T08:47:15.109Z,5.23
2018-06-21T08:50:18.986Z,5.27
2018-06-21T08:53:23.504Z,5.40
2018-06-21T08:56:27.753Z,5.10
2018-06-21T08:59:31.430Z,5.27
2018-06-21T09:02:35.989Z,4.83
2018-06-21T09:05:40.699Z,5.40
2018-06-21T09:08:46.013Z,5.97
2018-06-21T09:11:50.294Z,5.40
2018-06-21T09:14:55.010Z,5.77
2018-06-21T09:17:59.727Z,5.50
2018-06-21T09:21:05.360Z,5.30
2018-06-21T09:24:09.166Z,5.93
2018-06-21T09:27:14.488Z,5.53
2018-06-21T09:30:18.075Z,5.47
2018-06-21T09:33:22.689Z,4.93
2018-06-21T09:36:26.438Z,5.80
2018-06-21T09:39:35.741Z,5.40
2018-06-21T09:42:44.394Z,5.10
2018-06-21T09:45:53.045Z,4.93
2018-06-21T09:48:56.350Z,4.87
2018-06-21T09:52:04.672Z,8.60
2018-06-21T09:55:07.957Z,5.77
2018-06-21T09:58:11.608Z,3.97
2018-06-21T10:01:15.460Z,5.93
2018-06-21T10:04:20.070Z,4.60
2018-06-21T10:07:24.866Z,5.43
2018-06-21T10:10:29.167Z,4.43
2018-06-21T10:13:32.886Z,4.00
2018-06-21T10:16:36.077Z,4.27
2018-06-21T10:19:40.702Z,3.83
2018-06-21T10:22:43.873Z,4.17
2018-06-21T10:25:47.233Z,3.83
2018-06-21T10:28:50.499Z,4.47
2018-06-21T10:31:53.836Z,3.90
2018-06-21T10:35:01.884Z,3.50
2018-06-21T10:38:05.103Z,3.60
2018-06-21T10:41:08.321Z,3.83
2018-06-21T10:44:11.529Z,3.67
2018-06-21T10:47:14.757Z,4.00
2018-06-21T10:50:18.016Z,6.17
2018-06-21T10:53:21.214Z,7.30
2018-06-21T10:56:24.546Z,4.60
2018-06-21T10:59:27.765Z,3.97
2018-06-21T11:02:30.920Z,2.80
2018-06-21T11:05:34.127Z,2.60
2018-06-21T11:08:37.348Z,2.33
2018-06-21T11:11:40.521Z,1.80
2018-06-21T11:14:44.639Z,1.83
2018-06-21T11:17:47.830Z,2.00
2018-06-21T11:20:51.014Z,1.67
2018-06-21T11:23:54.208Z,1.97
2018-06-21T11:26:57.529Z,1.80
2018-06-21T11:30:00.738Z,1.77
2018-06-21T11:33:04.111Z,1.57
2018-06-21T11:36:07.412Z,1.40
2018-06-21T11:39:11.339Z,1.13
2018-06-21T11:42:14.621Z,1.50
2018-06-21T11:45:17.860Z,1.87
2018-06-21T11:48:21.263Z,1.73
2018-06-21T11:51:24.727Z,1.83
2018-06-21T11:54:28.001Z,1.30
2018-06-21T11:57:31.234Z,1.40
2018-06-21T12:00:34.424Z,1.33
2018-06-21T12:03:37.990Z,1.40
2018-06-21T12:06:41.407Z,1.50
2018-06-21T12:09:45.014Z,1.43
2018-06-21T12:12:53.058Z,1.43
2018-06-21T12:15:56.988Z,1.40
2018-06-21T12:19:02.247Z,1.30
2018-06-21T12:22:05.692Z,1.60
2018-06-21T12:25:11.436Z,1.20
2018-06-21T12:28:20.265Z,1.30
2018-06-21T12:31:25.035Z,4.70
2018-06-21T12:34:30.976Z,1.70
2018-06-21T12:37:35.822Z,8.07
2018-06-21T12:40:39.660Z,1.67
2018-06-21T12:43:43.626Z,1.40
2018-06-21T12:46:47.181Z,1.30
2018-06-21T12:49:50.564Z,1.50
2018-06-21T12:52:54.113Z,1.40
2018-06-21T12:55:57.430Z,1.50
2018-06-21T12:59:02.416Z,1.70
2018-06-21T13:02:06.277Z,1.50
2018-06-21T13:05:09.733Z,1.83
2018-06-21T13:08:18.735Z,1.63
2018-06-21T13:11:41.308Z,2.10
2018-06-21T13:14:44.547Z,1.67
2018-06-21T13:17:47.973Z,1.87
2018-06-21T13:20:52.278Z,1.90
2018-06-21T13:23:55.587Z,1.70
2018-06-21T13:26:58.935Z,2.10
2018-06-21T13:30:02.694Z,1.87
2018-06-21T13:33:06.350Z,1.90
2018-06-21T13:36:10.698Z,1.87
2018-06-21T13:39:14.406Z,1.80
2018-06-21T13:42:18.194Z,2.00
2018-06-21T13:45:22.504Z,1.80
2018-06-21T13:48:25.879Z,2.17
2018-06-21T13:51:29.756Z,2.03
2018-06-21T13:54:33.044Z,2.00
2018-06-21T13:57:36.284Z,2.20
2018-06-21T14:00:39.672Z,2.40
2018-06-21T14:03:42.934Z,2.23
2018-06-21T14:06:48.442Z,3.23
2018-06-21T14:09:52.861Z,2.00
2018-06-21T14:12:56.776Z,2.07
2018-06-21T14:16:00.240Z,1.93
2018-06-21T14:19:05.654Z,1.80
2018-06-21T14:22:09.693Z,1.30
2018-06-21T14:25:14.174Z,1.60
2018-06-21T14:28:18.176Z,1.30
2018-06-21T14:31:23.084Z,1.50
2018-06-21T14:34:26.762Z,1.37
2018-06-21T14:37:30.618Z,1.50
2018-06-21T14:40:35.352Z,1.70
2018-06-21T14:43:39.169Z,1.40
2018-06-21T14:46:42.766Z,1.43
2018-06-21T14:49:46.969Z,1.50
2018-06-21T14:52:50.803Z,1.27
2018-06-21T14:55:54.047Z,1.37
2018-06-21T14:58:57.453Z,1.30
2018-06-21T15:02:00.771Z,1.60
2018-06-21T15:05:04.210Z,1.20
2018-06-21T15:08:07.584Z,1.40
2018-06-21T15:11:11.039Z,1.30
2018-06-21T15:14:14.995Z,1.40
2018-06-21T15:17:18.366Z,1.30
2018-06-21T15:20:21.759Z,1.20
2018-06-21T15:23:25.327Z,1.30
2018-06-21T15:26:29.870Z,5.50
2018-06-21T15:29:33.186Z,2.20
2018-06-21T15:32:36.557Z,2.03
2018-06-21T15:35:39.878Z,2.27
2018-06-21T15:38:43.399Z,2.10
2018-06-21T15:41:46.725Z,2.27
2018-06-21T15:44:50.539Z,1.50
2018-06-21T15:47:55.188Z,1.80
2018-06-21T15:50:58.833Z,1.97
2018-06-21T15:54:06.389Z,1.63
2018-06-21T15:57:13.712Z,1.50
2018-06-21T16:00:17.797Z,1.50
2018-06-21T16:03:26.594Z,1.90
2018-06-21T16:06:31.979Z,1.50
2018-06-21T16:09:37.324Z,1.77
2018-06-21T16:12:41.578Z,1.80
2018-06-21T16:15:47.459Z,2.63
2018-06-21T16:18:52.446Z,1.60
2018-06-21T16:21:58.805Z,1.83
2018-06-21T16:25:03.859Z,1.43
2018-06-21T16:28:09.267Z,1.40
2018-06-21T16:31:13.815Z,1.20
2018-06-21T16:34:18.429Z,1.33
2018-06-21T16:37:25.558Z,1.30
2018-06-21T16:40:30.676Z,4.63
2018-06-21T16:43:34.359Z,1.30
2018-06-21T16:46:37.990Z,1.40
2018-06-21T16:49:49.980Z,1.60
2018-06-21T16:52:54.198Z,1.10
2018-06-21T16:55:59.030Z,1.50
2018-06-21T16:59:02.886Z,1.47
2018-06-21T17:02:07.980Z,1.87
2018-06-21T17:05:11.742Z,1.20
2018-06-21T17:11:28.703Z,1.20
2018-06-21T17:14:34.398Z,1.47
2018-06-21T17:18:02.446Z,1.00
2018-06-21T17:21:06.959Z,1.27
2018-06-21T17:24:10.825Z,1.50
2018-06-21T17:27:15.079Z,1.10
2018-06-21T17:30:23.451Z,1.00
2018-06-21T17:33:29.453Z,1.40
2018-06-21T17:36:35.467Z,1.10
2018-06-21T17:39:39.320Z,3.70
2018-06-21T17:42:45.673Z,2.27
2018-06-21T17:45:49.556Z,1.30
2018-06-21T17:48:53.550Z,1.47
2018-06-21T17:51:58.715Z,1.03
2018-06-21T17:55:03.012Z,1.20
2018-06-21T17:58:08.355Z,1.10
2018-06-21T18:01:13.808Z,0.90
2018-06-21T18:04:18.745Z,0.90
2018-06-21T18:07:22.587Z,1.40
2018-06-21T18:10:26.944Z,1.07
2018-06-21T18:13:30.963Z,1.20
2018-06-21T18:16:35.458Z,1.67
2018-06-21T18:19:44.710Z,1.10
2018-06-21T18:22:49.636Z,1.13
2018-06-21T18:25:53.525Z,1.10
2018-06-21T18:28:57.361Z,1.20
2018-06-21T18:32:01.444Z,1.43
2018-06-21T18:35:05.336Z,1.20
2018-06-21T18:38:10.555Z,1.03
2018-06-21T18:41:14.742Z,1.23
2018-06-21T18:44:19.075Z,1.10
2018-06-21T18:47:22.941Z,1.93
2018-06-21T18:50:27.289Z,1.23
2018-06-21T18:53:31.113Z,1.80
2018-06-21T18:56:34.835Z,1.50
2018-06-21T18:59:38.758Z,1.70
2018-06-21T19:02:43.845Z,1.60
2018-06-21T19:05:48.966Z,1.20
2018-06-21T19:11:04.624Z,1.20
2018-06-21T19:14:08.772Z,1.00
2018-06-21T19:17:13.026Z,1.10
2018-06-21T19:20:17.137Z,2.50
2018-06-21T19:23:20.746Z,1.43
2018-06-21T19:26:26.681Z,1.00
2018-06-21T19:29:30.577Z,0.83
2018-06-21T19:32:34.428Z,1.00
2018-06-21T19:35:38.028Z,1.17
2018-06-21T19:38:41.657Z,1.10
2018-06-21T19:41:45.508Z,1.40
2018-06-21T19:44:55.031Z,0.93
2018-06-21T19:48:18.854Z,1.37
2018-06-21T19:51:22.625Z,1.87
2018-06-21T19:54:26.395Z,1.30
2018-06-21T19:57:30.341Z,2.50
2018-06-21T20:00:33.929Z,2.00
2018-06-21T20:03:37.491Z,1.70
2018-06-21T20:06:41.730Z,1.27
2018-06-21T20:09:45.872Z,1.00
2018-06-21T20:12:49.518Z,1.10
2018-06-21T20:15:54.642Z,1.07
2018-06-21T20:19:02.557Z,1.00
2018-06-21T20:22:06.581Z,1.00
2018-06-21T20:25:10.295Z,1.30
2018-06-21T20:28:13.922Z,1.00
2018-06-21T20:31:18.159Z,1.20
2018-06-21T20:34:21.767Z,1.00
2018-06-21T20:37:25.572Z,2.50
2018-06-21T20:40:30.949Z,5.63
2018-06-21T20:43:34.505Z,1.20
2018-06-21T20:46:37.902Z,0.97
2018-06-21T20:49:41.437Z,1.00
2018-06-21T20:52:45.602Z,1.13
2018-06-21T20:55:50.985Z,0.90
2018-06-21T20:58:54.581Z,0.90
2018-06-21T21:01:58.096Z,1.33
2018-06-21T21:05:05.058Z,1.27
2018-06-21T21:08:08.627Z,1.23
2018-06-21T21:11:11.921Z,1.13
2018-06-21T21:14:17.483Z,0.90
2018-06-21T21:17:20.825Z,1.50
2018-06-21T21:20:24.759Z,1.07
2018-06-21T21:23:28.131Z,1.30
2018-06-21T21:26:31.403Z,1.30
2018-06-21T21:29:35.521Z,1.07
2018-06-21T21:32:38.908Z,1.30
2018-06-21T21:35:43.034Z,2.17
2018-06-21T21:38:46.358Z,4.23
2018-06-21T21:41:49.949Z,7.43
2018-06-21T21:44:53.290Z,1.83
2018-06-21T21:47:57.280Z,1.20
2018-06-21T21:51:01.364Z,1.60
2018-06-21T21:54:06.155Z,1.30
2018-06-21T21:57:09.495Z,1.60
2018-06-21T22:00:25.249Z,1.93
2018-06-21T22:03:30.474Z,1.60
2018-06-21T22:06:35.816Z,1.60
2018-06-21T22:09:39.505Z,1.40
2018-06-21T22:12:46.452Z,1.27
2018-06-21T22:15:50.207Z,1.27
2018-06-21T22:18:53.578Z,1.40
2018-06-21T22:21:56.975Z,1.40
2018-06-21T22:25:00.323Z,1.30
2018-06-21T22:28:03.662Z,1.17
2018-06-21T22:31:06.874Z,1.50
2018-06-21T22:34:10.376Z,1.30
2018-06-21T22:37:13.778Z,1.30
2018-06-21T22:40:16.999Z,1.30
2018-06-21T22:43:20.379Z,1.40
2018-06-21T22:46:23.769Z,1.40
2018-06-21T22:49:26.972Z,1.30
2018-06-21T22:52:30.260Z,1.23
2018-06-21T22:55:33.543Z,1.30
2018-06-21T22:58:36.798Z,1.60
2018-06-21T23:01:40.094Z,1.10
2018-06-21T23:04:43.332Z,1.20
2018-06-21T23:07:46.627Z,1.10
2018-06-21T23:10:49.912Z,1.67
2018-06-21T23:13:53.249Z,1.20
2018-06-21T23:16:58.791Z,1.37
2018-06-21T23:20:02.018Z,1.80
2018-06-21T23:23:05.468Z,1.60
2018-06-21T23:26:08.676Z,1.40
2018-06-21T23:29:11.915Z,2.17
2018-06-21T23:32:15.117Z,1.50
2018-06-21T23:35:18.303Z,1.40
2018-06-21T23:38:21.521Z,1.30
2018-06-21T23:41:24.703Z,1.67
2018-06-21T23:44:27.893Z,1.60
2018-06-21T23:47:31.093Z,1.70
2018-06-21T23:50:34.279Z,1.40
2018-06-21T23:53:37.470Z,1.37
2018-06-21T23:56:41.482Z,1.47
2018-06-21T23:59:44.665Z,1.63
